sensor_id;sensor_type;location;lat;lon;timestamp;P1;durP1;ratioP1;P2;durP2;ratioP2
23596;SDS011;40226;50.874;4.394;2023-04-06T00:01:35;32.30;;;15.82;;
23596;SDS011;40226;50.874;4.394;2023-04-06T00:04:00;28.65;;;14.32;;
23596;SDS011;40226;50.874;4.394;2023-04-06T00:06:26;27.02;;;14.93;;
23596;SDS011;40226;50.874;4.394;2023-04-06T00:08:53;28.27;;;14.90;;
23596;SDS011;40226;50.874;4.394;2023-04-06T00:11:18;28.42;;;14.77;;
23596;SDS011;40226;50.874;4.394;2023-04-06T00:13:44;29.67;;;14.50;;
23596;SDS011;40226;50.874;4.394;2023-04-06T00:16:10;25.00;;;15.00;;
23596;SDS011;40226;50.874;4.394;2023-04-06T00:18:36;29.13;;;14.73;;
23596;SDS011;40226;50.874;4.394;2023-04-06T00:21:01;27.48;;;14.70;;
23596;SDS011;40226;50.874;4.394;2023-04-06T00:23:27;27.70;;;14.43;;
23596;SDS011;40226;50.874;4.394;2023-04-06T00:25:53;28.48;;;16.00;;
23596;SDS011;40226;50.874;4.394;2023-04-06T00:28:19;26.67;;;14.80;;
23596;SDS011;40226;50.874;4.394;2023-04-06T00:30:50;25.95;;;14.35;;
23596;SDS011;40226;50.874;4.394;2023-04-06T00:33:17;26.23;;;14.93;;
23596;SDS011;40226;50.874;4.394;2023-04-06T00:35:43;26.80;;;15.00;;
23596;SDS011;40226;50.874;4.394;2023-04-06T00:38:09;29.85;;;14.85;;
23596;SDS011;40226;50.874;4.394;2023-04-06T00:40:35;28.67;;;16.25;;
23596;SDS011;40226;50.874;4.394;2023-04-06T00:43:00;26.17;;;14.77;;
23596;SDS011;40226;50.874;4.394;2023-04-06T00:45:26;26.17;;;14.30;;
23596;SDS011;40226;50.874;4.394;2023-04-06T00:47:52;27.08;;;14.55;;
23596;SDS011;40226;50.874;4.394;2023-04-06T00:50:18;27.88;;;14.13;;
23596;SDS011;40226;50.874;4.394;2023-04-06T00:52:43;26.25;;;14.68;;
23596;SDS011;40226;50.874;4.394;2023-04-06T00:55:09;29.08;;;15.32;;
23596;SDS011;40226;50.874;4.394;2023-04-06T00:57:35;25.23;;;15.45;;
23596;SDS011;40226;50.874;4.394;2023-04-06T01:00:01;25.80;;;15.48;;
23596;SDS011;40226;50.874;4.394;2023-04-06T01:02:28;32.13;;;14.63;;
23596;SDS011;40226;50.874;4.394;2023-04-06T01:04:53;28.58;;;15.82;;
23596;SDS011;40226;50.874;4.394;2023-04-06T01:07:19;27.90;;;15.43;;
23596;SDS011;40226;50.874;4.394;2023-04-06T01:09:45;31.42;;;15.35;;
23596;SDS011;40226;50.874;4.394;2023-04-06T01:12:10;29.10;;;15.55;;
23596;SDS011;40226;50.874;4.394;2023-04-06T01:14:36;28.95;;;15.57;;
23596;SDS011;40226;50.874;4.394;2023-04-06T01:17:02;32.40;;;16.20;;
23596;SDS011;40226;50.874;4.394;2023-04-06T01:19:28;28.77;;;16.02;;
23596;SDS011;40226;50.874;4.394;2023-04-06T01:21:53;31.25;;;15.68;;
23596;SDS011;40226;50.874;4.394;2023-04-06T01:24:20;27.17;;;15.32;;
23596;SDS011;40226;50.874;4.394;2023-04-06T01:26:45;30.17;;;15.88;;
23596;SDS011;40226;50.874;4.394;2023-04-06T01:29:11;29.58;;;16.02;;
23596;SDS011;40226;50.874;4.394;2023-04-06T01:31:37;33.63;;;15.57;;
23596;SDS011;40226;50.874;4.394;2023-04-06T01:34:03;29.27;;;15.98;;
23596;SDS011;40226;50.874;4.394;2023-04-06T01:36:29;32.88;;;16.50;;
23596;SDS011;40226;50.874;4.394;2023-04-06T01:38:55;27.92;;;15.88;;
23596;SDS011;40226;50.874;4.394;2023-04-06T01:41:21;30.23;;;16.52;;
23596;SDS011;40226;50.874;4.394;2023-04-06T01:43:47;30.60;;;15.65;;
23596;SDS011;40226;50.874;4.394;2023-04-06T01:46:13;28.13;;;16.33;;
23596;SDS011;40226;50.874;4.394;2023-04-06T01:48:39;30.73;;;16.38;;
23596;SDS011;40226;50.874;4.394;2023-04-06T01:51:05;33.83;;;16.10;;
23596;SDS011;40226;50.874;4.394;2023-04-06T01:53:31;28.92;;;16.42;;
23596;SDS011;40226;50.874;4.394;2023-04-06T01:55:57;31.00;;;15.68;;
23596;SDS011;40226;50.874;4.394;2023-04-06T01:58:22;30.27;;;16.77;;
23596;SDS011;40226;50.874;4.394;2023-04-06T02:00:48;28.98;;;16.60;;
23596;SDS011;40226;50.874;4.394;2023-04-06T02:03:13;28.25;;;16.50;;
23596;SDS011;40226;50.874;4.394;2023-04-06T02:05:39;27.92;;;15.80;;
23596;SDS011;40226;50.874;4.394;2023-04-06T02:08:05;30.77;;;16.92;;
23596;SDS011;40226;50.874;4.394;2023-04-06T02:10:31;34.38;;;16.88;;
23596;SDS011;40226;50.874;4.394;2023-04-06T02:12:58;29.83;;;16.20;;
23596;SDS011;40226;50.874;4.394;2023-04-06T02:15:24;33.75;;;16.83;;
23596;SDS011;40226;50.874;4.394;2023-04-06T02:17:50;32.50;;;16.83;;
23596;SDS011;40226;50.874;4.394;2023-04-06T02:20:17;29.67;;;16.75;;
23596;SDS011;40226;50.874;4.394;2023-04-06T02:22:43;31.88;;;16.88;;
23596;SDS011;40226;50.874;4.394;2023-04-06T02:25:09;34.13;;;17.30;;
23596;SDS011;40226;50.874;4.394;2023-04-06T02:27:36;30.45;;;16.15;;
23596;SDS011;40226;50.874;4.394;2023-04-06T02:30:02;31.33;;;17.30;;
23596;SDS011;40226;50.874;4.394;2023-04-06T02:32:28;32.13;;;17.10;;
23596;SDS011;40226;50.874;4.394;2023-04-06T02:34:54;30.35;;;16.75;;
23596;SDS011;40226;50.874;4.394;2023-04-06T02:37:20;32.63;;;17.95;;
23596;SDS011;40226;50.874;4.394;2023-04-06T02:39:46;31.52;;;17.25;;
23596;SDS011;40226;50.874;4.394;2023-04-06T02:42:11;29.70;;;16.50;;
23596;SDS011;40226;50.874;4.394;2023-04-06T02:44:37;29.55;;;16.85;;
23596;SDS011;40226;50.874;4.394;2023-04-06T02:47:03;32.38;;;17.90;;
23596;SDS011;40226;50.874;4.394;2023-04-06T02:49:28;31.30;;;17.85;;
23596;SDS011;40226;50.874;4.394;2023-04-06T02:51:54;32.53;;;17.50;;
23596;SDS011;40226;50.874;4.394;2023-04-06T02:54:19;31.30;;;17.98;;
23596;SDS011;40226;50.874;4.394;2023-04-06T02:56:45;30.90;;;18.65;;
23596;SDS011;40226;50.874;4.394;2023-04-06T02:59:11;32.42;;;18.13;;
23596;SDS011;40226;50.874;4.394;2023-04-06T03:01:36;29.98;;;17.73;;
23596;SDS011;40226;50.874;4.394;2023-04-06T03:04:02;31.60;;;18.40;;
23596;SDS011;40226;50.874;4.394;2023-04-06T03:06:29;33.58;;;18.52;;
23596;SDS011;40226;50.874;4.394;2023-04-06T03:08:55;32.00;;;17.92;;
23596;SDS011;40226;50.874;4.394;2023-04-06T03:11:20;34.90;;;19.35;;
23596;SDS011;40226;50.874;4.394;2023-04-06T03:13:46;34.20;;;19.10;;
23596;SDS011;40226;50.874;4.394;2023-04-06T03:16:12;40.20;;;18.80;;
23596;SDS011;40226;50.874;4.394;2023-04-06T03:18:37;36.00;;;19.38;;
23596;SDS011;40226;50.874;4.394;2023-04-06T03:21:03;30.02;;;17.88;;
23596;SDS011;40226;50.874;4.394;2023-04-06T03:23:29;32.80;;;18.52;;
23596;SDS011;40226;50.874;4.394;2023-04-06T03:25:55;31.77;;;18.73;;
23596;SDS011;40226;50.874;4.394;2023-04-06T03:28:20;33.25;;;18.38;;
23596;SDS011;40226;50.874;4.394;2023-04-06T03:30:46;30.45;;;18.88;;
23596;SDS011;40226;50.874;4.394;2023-04-06T03:33:11;33.33;;;18.52;;
23596;SDS011;40226;50.874;4.394;2023-04-06T03:35:37;36.30;;;19.55;;
23596;SDS011;40226;50.874;4.394;2023-04-06T03:38:03;32.95;;;19.85;;
23596;SDS011;40226;50.874;4.394;2023-04-06T03:40:30;36.38;;;19.05;;
23596;SDS011;40226;50.874;4.394;2023-04-06T03:42:55;37.90;;;19.00;;
23596;SDS011;40226;50.874;4.394;2023-04-06T03:45:21;34.67;;;20.70;;
23596;SDS011;40226;50.874;4.394;2023-04-06T03:47:47;33.95;;;19.85;;
23596;SDS011;40226;50.874;4.394;2023-04-06T03:50:12;37.03;;;19.05;;
23596;SDS011;40226;50.874;4.394;2023-04-06T03:52:38;33.95;;;18.45;;
23596;SDS011;40226;50.874;4.394;2023-04-06T03:55:03;32.78;;;19.70;;
23596;SDS011;40226;50.874;4.394;2023-04-06T03:57:30;35.97;;;19.38;;
23596;SDS011;40226;50.874;4.394;2023-04-06T03:59:55;31.77;;;18.42;;
23596;SDS011;40226;50.874;4.394;2023-04-06T04:02:21;31.58;;;18.65;;
23596;SDS011;40226;50.874;4.394;2023-04-06T04:04:46;33.65;;;19.83;;
23596;SDS011;40226;50.874;4.394;2023-04-06T04:07:12;32.40;;;19.25;;
23596;SDS011;40226;50.874;4.394;2023-04-06T04:09:37;34.70;;;19.13;;
23596;SDS011;40226;50.874;4.394;2023-04-06T04:12:03;32.17;;;18.80;;
23596;SDS011;40226;50.874;4.394;2023-04-06T04:14:29;30.27;;;17.98;;
23596;SDS011;40226;50.874;4.394;2023-04-06T04:16:55;33.65;;;18.75;;
23596;SDS011;40226;50.874;4.394;2023-04-06T04:19:20;34.58;;;18.83;;
23596;SDS011;40226;50.874;4.394;2023-04-06T04:21:46;30.30;;;17.70;;
23596;SDS011;40226;50.874;4.394;2023-04-06T04:24:12;36.45;;;19.27;;
23596;SDS011;40226;50.874;4.394;2023-04-06T04:26:38;33.40;;;18.88;;
23596;SDS011;40226;50.874;4.394;2023-04-06T04:29:05;34.38;;;18.67;;
23596;SDS011;40226;50.874;4.394;2023-04-06T04:31:31;32.15;;;18.88;;
23596;SDS011;40226;50.874;4.394;2023-04-06T04:33:57;32.28;;;18.30;;
23596;SDS011;40226;50.874;4.394;2023-04-06T04:36:22;30.52;;;18.65;;
23596;SDS011;40226;50.874;4.394;2023-04-06T04:38:50;31.60;;;17.80;;
23596;SDS011;40226;50.874;4.394;2023-04-06T04:41:16;37.40;;;18.45;;
23596;SDS011;40226;50.874;4.394;2023-04-06T04:43:42;30.73;;;19.35;;
23596;SDS011;40226;50.874;4.394;2023-04-06T04:46:07;36.80;;;19.65;;
23596;SDS011;40226;50.874;4.394;2023-04-06T04:48:33;35.38;;;20.13;;
23596;SDS011;40226;50.874;4.394;2023-04-06T04:50:59;39.88;;;20.48;;
23596;SDS011;40226;50.874;4.394;2023-04-06T04:53:25;36.53;;;20.25;;
23596;SDS011;40226;50.874;4.394;2023-04-06T04:55:50;35.10;;;20.25;;
23596;SDS011;40226;50.874;4.394;2023-04-06T04:58:16;38.53;;;19.58;;
23596;SDS011;40226;50.874;4.394;2023-04-06T05:00:43;35.28;;;20.00;;
23596;SDS011;40226;50.874;4.394;2023-04-06T05:03:09;39.20;;;20.38;;
23596;SDS011;40226;50.874;4.394;2023-04-06T05:05:48;38.72;;;20.88;;
23596;SDS011;40226;50.874;4.394;2023-04-06T05:08:14;36.78;;;21.65;;
23596;SDS011;40226;50.874;4.394;2023-04-06T05:10:40;38.42;;;20.95;;
23596;SDS011;40226;50.874;4.394;2023-04-06T05:13:06;43.75;;;20.92;;
23596;SDS011;40226;50.874;4.394;2023-04-06T05:15:32;36.13;;;20.05;;
23596;SDS011;40226;50.874;4.394;2023-04-06T05:17:59;42.30;;;20.95;;
23596;SDS011;40226;50.874;4.394;2023-04-06T05:20:26;41.85;;;21.20;;
23596;SDS011;40226;50.874;4.394;2023-04-06T05:22:52;39.35;;;20.30;;
23596;SDS011;40226;50.874;4.394;2023-04-06T05:25:18;39.20;;;20.98;;
23596;SDS011;40226;50.874;4.394;2023-04-06T05:27:44;44.35;;;22.40;;
23596;SDS011;40226;50.874;4.394;2023-04-06T05:30:10;42.40;;;21.08;;
23596;SDS011;40226;50.874;4.394;2023-04-06T05:32:36;39.85;;;19.35;;
23596;SDS011;40226;50.874;4.394;2023-04-06T05:35:01;38.85;;;20.05;;
23596;SDS011;40226;50.874;4.394;2023-04-06T05:37:27;39.25;;;20.90;;
23596;SDS011;40226;50.874;4.394;2023-04-06T05:39:53;38.10;;;21.25;;
23596;SDS011;40226;50.874;4.394;2023-04-06T05:42:18;41.35;;;20.98;;
23596;SDS011;40226;50.874;4.394;2023-04-06T05:44:44;38.45;;;20.90;;
23596;SDS011;40226;50.874;4.394;2023-04-06T05:47:10;40.22;;;19.95;;
23596;SDS011;40226;50.874;4.394;2023-04-06T05:49:36;37.78;;;20.27;;
23596;SDS011;40226;50.874;4.394;2023-04-06T05:52:01;42.38;;;20.63;;
23596;SDS011;40226;50.874;4.394;2023-04-06T05:54:27;39.78;;;19.98;;
23596;SDS011;40226;50.874;4.394;2023-04-06T05:56:52;42.72;;;20.88;;
23596;SDS011;40226;50.874;4.394;2023-04-06T05:59:18;43.97;;;21.65;;
23596;SDS011;40226;50.874;4.394;2023-04-06T06:01:44;40.08;;;20.27;;
23596;SDS011;40226;50.874;4.394;2023-04-06T06:04:09;43.35;;;20.40;;
23596;SDS011;40226;50.874;4.394;2023-04-06T06:06:35;44.42;;;21.70;;
23596;SDS011;40226;50.874;4.394;2023-04-06T06:09:01;41.55;;;20.27;;
23596;SDS011;40226;50.874;4.394;2023-04-06T06:11:28;40.83;;;21.77;;
23596;SDS011;40226;50.874;4.394;2023-04-06T06:13:54;45.78;;;21.65;;
23596;SDS011;40226;50.874;4.394;2023-04-06T06:16:20;38.00;;;21.88;;
23596;SDS011;40226;50.874;4.394;2023-04-06T06:18:46;44.10;;;22.55;;
23596;SDS011;40226;50.874;4.394;2023-04-06T06:21:12;44.05;;;22.15;;
23596;SDS011;40226;50.874;4.394;2023-04-06T06:23:39;50.67;;;23.15;;
23596;SDS011;40226;50.874;4.394;2023-04-06T06:26:06;44.38;;;22.30;;
23596;SDS011;40226;50.874;4.394;2023-04-06T06:28:32;41.05;;;21.98;;
23596;SDS011;40226;50.874;4.394;2023-04-06T06:30:58;44.70;;;22.95;;
23596;SDS011;40226;50.874;4.394;2023-04-06T06:33:23;44.45;;;22.50;;
23596;SDS011;40226;50.874;4.394;2023-04-06T06:35:50;44.60;;;22.13;;
23596;SDS011;40226;50.874;4.394;2023-04-06T06:38:16;41.70;;;21.83;;
23596;SDS011;40226;50.874;4.394;2023-04-06T06:40:42;42.72;;;22.83;;
23596;SDS011;40226;50.874;4.394;2023-04-06T06:43:08;43.78;;;23.50;;
23596;SDS011;40226;50.874;4.394;2023-04-06T06:45:33;41.10;;;22.88;;
23596;SDS011;40226;50.874;4.394;2023-04-06T06:47:59;45.08;;;24.02;;
23596;SDS011;40226;50.874;4.394;2023-04-06T06:50:25;41.00;;;21.58;;
23596;SDS011;40226;50.874;4.394;2023-04-06T06:52:52;51.40;;;23.90;;
23596;SDS011;40226;50.874;4.394;2023-04-06T06:55:17;42.00;;;22.27;;
23596;SDS011;40226;50.874;4.394;2023-04-06T06:57:44;41.60;;;20.98;;
23596;SDS011;40226;50.874;4.394;2023-04-06T07:00:11;46.95;;;22.40;;
23596;SDS011;40226;50.874;4.394;2023-04-06T07:02:38;48.25;;;24.05;;
23596;SDS011;40226;50.874;4.394;2023-04-06T07:05:04;46.67;;;23.67;;
23596;SDS011;40226;50.874;4.394;2023-04-06T07:07:31;42.33;;;21.17;;
23596;SDS011;40226;50.874;4.394;2023-04-06T07:09:58;37.13;;;20.85;;
23596;SDS011;40226;50.874;4.394;2023-04-06T07:12:24;38.47;;;20.60;;
23596;SDS011;40226;50.874;4.394;2023-04-06T07:14:49;37.15;;;20.50;;
23596;SDS011;40226;50.874;4.394;2023-04-06T07:17:15;45.63;;;20.50;;
23596;SDS011;40226;50.874;4.394;2023-04-06T07:19:40;35.25;;;20.15;;
23596;SDS011;40226;50.874;4.394;2023-04-06T07:22:06;36.28;;;20.02;;
23596;SDS011;40226;50.874;4.394;2023-04-06T07:24:32;40.35;;;20.15;;
23596;SDS011;40226;50.874;4.394;2023-04-06T07:27:00;33.78;;;19.40;;
23596;SDS011;40226;50.874;4.394;2023-04-06T07:29:26;32.33;;;17.23;;
23596;SDS011;40226;50.874;4.394;2023-04-06T07:31:53;30.25;;;17.23;;
23596;SDS011;40226;50.874;4.394;2023-04-06T07:34:19;32.42;;;16.17;;
23596;SDS011;40226;50.874;4.394;2023-04-06T07:36:45;25.25;;;13.90;;
23596;SDS011;40226;50.874;4.394;2023-04-06T07:39:10;27.75;;;15.38;;
23596;SDS011;40226;50.874;4.394;2023-04-06T07:41:36;31.83;;;15.73;;
23596;SDS011;40226;50.874;4.394;2023-04-06T07:44:01;25.83;;;13.70;;
23596;SDS011;40226;50.874;4.394;2023-04-06T07:46:28;29.77;;;14.05;;
23596;SDS011;40226;50.874;4.394;2023-04-06T07:48:53;31.23;;;14.55;;
23596;SDS011;40226;50.874;4.394;2023-04-06T07:51:19;26.58;;;13.88;;
23596;SDS011;40226;50.874;4.394;2023-04-06T07:53:45;21.58;;;12.43;;
23596;SDS011;40226;50.874;4.394;2023-04-06T07:56:10;24.17;;;14.75;;
23596;SDS011;40226;50.874;4.394;2023-04-06T07:58:37;27.23;;;14.15;;
23596;SDS011;40226;50.874;4.394;2023-04-06T08:01:03;23.35;;;12.55;;
23596;SDS011;40226;50.874;4.394;2023-04-06T08:03:28;23.50;;;12.00;;
23596;SDS011;40226;50.874;4.394;2023-04-06T08:05:54;23.00;;;13.35;;
23596;SDS011;40226;50.874;4.394;2023-04-06T08:08:20;22.13;;;12.52;;
23596;SDS011;40226;50.874;4.394;2023-04-06T08:10:46;23.75;;;13.13;;
23596;SDS011;40226;50.874;4.394;2023-04-06T08:13:13;23.75;;;12.73;;
23596;SDS011;40226;50.874;4.394;2023-04-06T08:15:39;27.55;;;13.55;;
23596;SDS011;40226;50.874;4.394;2023-04-06T08:18:04;24.02;;;12.15;;
23596;SDS011;40226;50.874;4.394;2023-04-06T08:20:30;23.23;;;12.05;;
23596;SDS011;40226;50.874;4.394;2023-04-06T08:22:56;22.63;;;10.82;;
23596;SDS011;40226;50.874;4.394;2023-04-06T08:25:21;22.27;;;12.95;;
23596;SDS011;40226;50.874;4.394;2023-04-06T08:27:47;24.88;;;12.82;;
23596;SDS011;40226;50.874;4.394;2023-04-06T08:30:13;26.10;;;13.65;;
23596;SDS011;40226;50.874;4.394;2023-04-06T08:32:40;24.77;;;12.93;;
23596;SDS011;40226;50.874;4.394;2023-04-06T08:35:06;26.70;;;12.85;;
23596;SDS011;40226;50.874;4.394;2023-04-06T08:37:32;24.52;;;13.75;;
23596;SDS011;40226;50.874;4.394;2023-04-06T08:39:58;27.65;;;12.82;;
23596;SDS011;40226;50.874;4.394;2023-04-06T08:42:24;24.48;;;12.88;;
23596;SDS011;40226;50.874;4.394;2023-04-06T08:44:51;25.92;;;13.25;;
23596;SDS011;40226;50.874;4.394;2023-04-06T08:47:18;25.05;;;13.10;;
23596;SDS011;40226;50.874;4.394;2023-04-06T08:49:44;24.58;;;13.55;;
23596;SDS011;40226;50.874;4.394;2023-04-06T08:52:11;23.98;;;13.68;;
23596;SDS011;40226;50.874;4.394;2023-04-06T08:54:37;28.13;;;15.18;;
23596;SDS011;40226;50.874;4.394;2023-04-06T08:57:04;28.70;;;15.23;;
23596;SDS011;40226;50.874;4.394;2023-04-06T08:59:31;31.17;;;15.20;;
23596;SDS011;40226;50.874;4.394;2023-04-06T09:01:57;38.35;;;16.45;;
23596;SDS011;40226;50.874;4.394;2023-04-06T09:04:24;32.45;;;15.52;;
23596;SDS011;40226;50.874;4.394;2023-04-06T09:06:51;27.50;;;14.77;;
23596;SDS011;40226;50.874;4.394;2023-04-06T09:09:17;28.48;;;14.07;;
23596;SDS011;40226;50.874;4.394;2023-04-06T09:11:43;29.73;;;16.13;;
23596;SDS011;40226;50.874;4.394;2023-04-06T09:14:10;33.78;;;16.40;;
23596;SDS011;40226;50.874;4.394;2023-04-06T09:16:40;26.15;;;15.45;;
23596;SDS011;40226;50.874;4.394;2023-04-06T09:21:36;31.55;;;14.38;;
23596;SDS011;40226;50.874;4.394;2023-04-06T09:24:03;28.75;;;14.80;;
23596;SDS011;40226;50.874;4.394;2023-04-06T09:26:29;23.88;;;13.65;;
23596;SDS011;40226;50.874;4.394;2023-04-06T09:28:55;26.20;;;14.10;;
23596;SDS011;40226;50.874;4.394;2023-04-06T09:31:23;25.75;;;13.60;;
23596;SDS011;40226;50.874;4.394;2023-04-06T09:33:51;27.92;;;14.32;;
23596;SDS011;40226;50.874;4.394;2023-04-06T09:36:19;33.47;;;17.90;;
23596;SDS011;40226;50.874;4.394;2023-04-06T09:39:03;26.00;;;14.88;;
23596;SDS011;40226;50.874;4.394;2023-04-06T09:41:30;88.40;;;34.17;;
23596;SDS011;40226;50.874;4.394;2023-04-06T09:44:04;66.50;;;27.25;;
23596;SDS011;40226;50.874;4.394;2023-04-06T09:46:38;51.92;;;23.90;;
23596;SDS011;40226;50.874;4.394;2023-04-06T09:49:09;33.28;;;17.25;;
23596;SDS011;40226;50.874;4.394;2023-04-06T09:54:02;22.88;;;13.10;;
23596;SDS011;40226;50.874;4.394;2023-04-06T10:02:19;45.55;;;25.33;;
23596;SDS011;40226;50.874;4.394;2023-04-06T10:07:51;26.02;;;14.25;;
23596;SDS011;40226;50.874;4.394;2023-04-06T10:10:19;27.77;;;14.73;;
23596;SDS011;40226;50.874;4.394;2023-04-06T10:12:45;27.88;;;13.88;;
23596;SDS011;40226;50.874;4.394;2023-04-06T10:15:13;28.65;;;15.07;;
23596;SDS011;40226;50.874;4.394;2023-04-06T10:17:38;25.92;;;15.00;;
23596;SDS011;40226;50.874;4.394;2023-04-06T10:22:39;27.13;;;14.27;;
23596;SDS011;40226;50.874;4.394;2023-04-06T10:25:31;25.08;;;14.15;;
23596;SDS011;40226;50.874;4.394;2023-04-06T10:28:07;22.77;;;11.38;;
23596;SDS011;40226;50.874;4.394;2023-04-06T10:30:42;27.33;;;13.85;;
23596;SDS011;40226;50.874;4.394;2023-04-06T10:33:18;82.80;;;31.92;;
23596;SDS011;40226;50.874;4.394;2023-04-06T10:35:45;183.02;;;54.45;;
23596;SDS011;40226;50.874;4.394;2023-04-06T10:38:11;96.55;;;35.08;;
23596;SDS011;40226;50.874;4.394;2023-04-06T10:40:39;61.05;;;26.90;;
23596;SDS011;40226;50.874;4.394;2023-04-06T10:45:39;65.25;;;33.88;;
23596;SDS011;40226;50.874;4.394;2023-04-06T10:48:17;39.88;;;21.88;;
23596;SDS011;40226;50.874;4.394;2023-04-06T10:50:47;33.58;;;17.27;;
23596;SDS011;40226;50.874;4.394;2023-04-06T10:53:21;29.52;;;16.42;;
23596;SDS011;40226;50.874;4.394;2023-04-06T10:55:47;25.27;;;15.30;;
23596;SDS011;40226;50.874;4.394;2023-04-06T10:58:14;30.08;;;15.93;;
23596;SDS011;40226;50.874;4.394;2023-04-06T11:00:44;28.90;;;15.13;;
23596;SDS011;40226;50.874;4.394;2023-04-06T11:03:11;29.35;;;14.70;;
23596;SDS011;40226;50.874;4.394;2023-04-06T11:05:36;23.88;;;14.95;;
23596;SDS011;40226;50.874;4.394;2023-04-06T11:08:02;27.50;;;15.18;;
23596;SDS011;40226;50.874;4.394;2023-04-06T11:10:28;25.48;;;15.27;;
23596;SDS011;40226;50.874;4.394;2023-04-06T11:12:55;26.92;;;15.00;;
23596;SDS011;40226;50.874;4.394;2023-04-06T11:15:21;26.23;;;15.40;;
23596;SDS011;40226;50.874;4.394;2023-04-06T11:17:47;48.80;;;22.50;;
23596;SDS011;40226;50.874;4.394;2023-04-06T11:20:14;77.93;;;30.08;;
23596;SDS011;40226;50.874;4.394;2023-04-06T11:22:49;28.20;;;15.80;;
23596;SDS011;40226;50.874;4.394;2023-04-06T11:25:18;62.38;;;29.00;;
23596;SDS011;40226;50.874;4.394;2023-04-06T11:27:45;67.72;;;30.38;;
23596;SDS011;40226;50.874;4.394;2023-04-06T11:30:13;49.80;;;26.40;;
23596;SDS011;40226;50.874;4.394;2023-04-06T11:32:40;30.88;;;16.73;;
23596;SDS011;40226;50.874;4.394;2023-04-06T11:35:22;27.45;;;16.13;;
23596;SDS011;40226;50.874;4.394;2023-04-06T11:37:49;27.48;;;15.88;;
23596;SDS011;40226;50.874;4.394;2023-04-06T11:40:15;29.30;;;16.52;;
23596;SDS011;40226;50.874;4.394;2023-04-06T11:42:51;26.48;;;13.90;;
23596;SDS011;40226;50.874;4.394;2023-04-06T11:45:18;25.92;;;13.05;;
23596;SDS011;40226;50.874;4.394;2023-04-06T11:47:44;25.67;;;15.85;;
23596;SDS011;40226;50.874;4.394;2023-04-06T11:50:13;27.90;;;15.40;;
23596;SDS011;40226;50.874;4.394;2023-04-06T11:52:40;36.05;;;20.02;;
23596;SDS011;40226;50.874;4.394;2023-04-06T11:57:42;32.80;;;19.20;;
23596;SDS011;40226;50.874;4.394;2023-04-06T12:00:08;26.30;;;15.38;;
23596;SDS011;40226;50.874;4.394;2023-04-06T12:02:38;30.25;;;17.58;;
23596;SDS011;40226;50.874;4.394;2023-04-06T12:05:04;26.73;;;16.30;;
23596;SDS011;40226;50.874;4.394;2023-04-06T12:07:32;27.95;;;16.50;;
23596;SDS011;40226;50.874;4.394;2023-04-06T12:09:58;29.83;;;16.63;;
23596;SDS011;40226;50.874;4.394;2023-04-06T12:12:27;26.05;;;15.35;;
23596;SDS011;40226;50.874;4.394;2023-04-06T12:14:53;27.27;;;16.27;;
23596;SDS011;40226;50.874;4.394;2023-04-06T12:17:19;29.63;;;18.13;;
23596;SDS011;40226;50.874;4.394;2023-04-06T12:19:45;27.83;;;15.48;;
23596;SDS011;40226;50.874;4.394;2023-04-06T12:22:11;29.85;;;17.42;;
23596;SDS011;40226;50.874;4.394;2023-04-06T12:24:36;29.38;;;16.95;;
23596;SDS011;40226;50.874;4.394;2023-04-06T12:27:02;28.80;;;16.80;;
23596;SDS011;40226;50.874;4.394;2023-04-06T12:29:28;27.40;;;15.73;;
23596;SDS011;40226;50.874;4.394;2023-04-06T12:31:53;34.15;;;19.70;;
23596;SDS011;40226;50.874;4.394;2023-04-06T12:34:19;61.22;;;31.23;;
23596;SDS011;40226;50.874;4.394;2023-04-06T12:36:44;63.67;;;29.33;;
23596;SDS011;40226;50.874;4.394;2023-04-06T12:39:10;27.00;;;15.48;;
23596;SDS011;40226;50.874;4.394;2023-04-06T12:41:36;86.65;;;39.30;;
23596;SDS011;40226;50.874;4.394;2023-04-06T12:44:02;37.47;;;18.88;;
23596;SDS011;40226;50.874;4.394;2023-04-06T12:46:28;30.88;;;18.65;;
23596;SDS011;40226;50.874;4.394;2023-04-06T12:48:57;24.52;;;15.13;;
23596;SDS011;40226;50.874;4.394;2023-04-06T12:51:24;29.02;;;17.65;;
23596;SDS011;40226;50.874;4.394;2023-04-06T12:53:52;29.38;;;15.70;;
23596;SDS011;40226;50.874;4.394;2023-04-06T12:56:18;29.98;;;18.33;;
23596;SDS011;40226;50.874;4.394;2023-04-06T12:58:44;26.50;;;17.15;;
23596;SDS011;40226;50.874;4.394;2023-04-06T13:01:10;27.75;;;17.65;;
23596;SDS011;40226;50.874;4.394;2023-04-06T13:03:39;30.45;;;18.50;;
23596;SDS011;40226;50.874;4.394;2023-04-06T13:06:05;31.77;;;18.88;;
23596;SDS011;40226;50.874;4.394;2023-04-06T13:08:33;29.27;;;17.73;;
23596;SDS011;40226;50.874;4.394;2023-04-06T13:10:59;28.50;;;17.42;;
23596;SDS011;40226;50.874;4.394;2023-04-06T13:13:26;30.77;;;18.05;;
23596;SDS011;40226;50.874;4.394;2023-04-06T13:15:54;26.90;;;16.20;;
23596;SDS011;40226;50.874;4.394;2023-04-06T13:18:23;54.72;;;29.27;;
23596;SDS011;40226;50.874;4.394;2023-04-06T13:20:49;47.08;;;24.42;;
23596;SDS011;40226;50.874;4.394;2023-04-06T13:23:15;43.47;;;22.20;;
23596;SDS011;40226;50.874;4.394;2023-04-06T13:25:41;33.85;;;19.77;;
23596;SDS011;40226;50.874;4.394;2023-04-06T13:28:07;34.60;;;21.13;;
23596;SDS011;40226;50.874;4.394;2023-04-06T13:30:33;35.08;;;22.08;;
23596;SDS011;40226;50.874;4.394;2023-04-06T13:32:59;38.95;;;24.83;;
23596;SDS011;40226;50.874;4.394;2023-04-06T13:35:25;34.25;;;20.15;;
23596;SDS011;40226;50.874;4.394;2023-04-06T13:37:50;30.27;;;16.23;;
23596;SDS011;40226;50.874;4.394;2023-04-06T13:40:17;30.27;;;18.40;;
23596;SDS011;40226;50.874;4.394;2023-04-06T13:42:43;30.83;;;18.70;;
23596;SDS011;40226;50.874;4.394;2023-04-06T13:45:10;35.05;;;21.35;;
23596;SDS011;40226;50.874;4.394;2023-04-06T13:47:36;34.25;;;20.75;;
23596;SDS011;40226;50.874;4.394;2023-04-06T13:50:01;28.55;;;17.42;;
23596;SDS011;40226;50.874;4.394;2023-04-06T13:52:28;32.50;;;19.15;;
23596;SDS011;40226;50.874;4.394;2023-04-06T13:54:54;30.52;;;18.50;;
23596;SDS011;40226;50.874;4.394;2023-04-06T13:57:19;33.50;;;19.60;;
23596;SDS011;40226;50.874;4.394;2023-04-06T13:59:45;31.17;;;15.27;;
23596;SDS011;40226;50.874;4.394;2023-04-06T14:02:11;32.95;;;20.88;;
23596;SDS011;40226;50.874;4.394;2023-04-06T14:04:36;31.50;;;19.58;;
23596;SDS011;40226;50.874;4.394;2023-04-06T14:07:03;31.70;;;19.50;;
23596;SDS011;40226;50.874;4.394;2023-04-06T14:09:29;33.00;;;19.98;;
23596;SDS011;40226;50.874;4.394;2023-04-06T14:11:55;33.63;;;20.25;;
23596;SDS011;40226;50.874;4.394;2023-04-06T14:14:22;33.15;;;20.77;;
23596;SDS011;40226;50.874;4.394;2023-04-06T14:16:48;31.05;;;19.20;;
23596;SDS011;40226;50.874;4.394;2023-04-06T14:19:14;34.13;;;19.52;;
23596;SDS011;40226;50.874;4.394;2023-04-06T14:21:42;35.13;;;21.25;;
23596;SDS011;40226;50.874;4.394;2023-04-06T14:24:08;33.60;;;20.15;;
23596;SDS011;40226;50.874;4.394;2023-04-06T14:26:35;34.88;;;20.30;;
23596;SDS011;40226;50.874;4.394;2023-04-06T14:29:01;35.70;;;20.88;;
23596;SDS011;40226;50.874;4.394;2023-04-06T14:31:28;35.20;;;21.77;;
23596;SDS011;40226;50.874;4.394;2023-04-06T14:33:53;38.55;;;22.75;;
23596;SDS011;40226;50.874;4.394;2023-04-06T14:36:19;37.88;;;22.15;;
23596;SDS011;40226;50.874;4.394;2023-04-06T14:38:45;39.63;;;21.65;;